createdAt,value
2023-01-13T00:00:34.322Z,99123.69
2023-01-13T00:02:37.684Z,99117.78
2023-01-13T00:04:41.112Z,99134.69
2023-01-13T00:06:44.406Z,99121.03
2023-01-13T00:08:50.905Z,99119.34
2023-01-13T00:10:54.174Z,99115.97
2023-01-13T00:12:57.570Z,99104.72
2023-01-13T00:15:00.815Z,99129.38
2023-01-13T00:17:05.229Z,99103.03
2023-01-13T00:19:08.321Z,99104.00
2023-01-13T00:21:13.087Z,99116.31
2023-01-13T00:23:16.409Z,99114.53
2023-01-13T00:25:21.061Z,99109.50
2023-01-13T00:27:25.516Z,99111.41
2023-01-13T00:29:28.706Z,99123.94
2023-01-13T00:31:32.227Z,99116.19
2023-01-13T00:33:35.634Z,99120.69
2023-01-13T00:35:38.850Z,99132.19
2023-01-13T00:37:42.375Z,99127.88
2023-01-13T00:39:46.063Z,99124.41
2023-01-13T00:42:08.009Z,99148.41
2023-01-13T00:44:11.347Z,99145.03
2023-01-13T00:46:15.992Z,99145.25
2023-01-13T00:48:19.280Z,99133.06
2023-01-13T00:50:22.501Z,99148.84
2023-01-13T00:52:25.955Z,99157.78
2023-01-13T00:54:29.024Z,99156.22
2023-01-13T00:56:40.121Z,99174.88
2023-01-13T00:58:46.084Z,99183.59
2023-01-13T01:00:49.005Z,99176.63
2023-01-13T01:02:52.411Z,99183.69
2023-01-13T01:04:55.697Z,99187.16
2023-01-13T01:06:59.180Z,99206.41
2023-01-13T01:09:02.352Z,99198.63
2023-01-13T01:11:06.317Z,99226.72
2023-01-13T01:13:11.930Z,99200.41
2023-01-13T01:15:16.555Z,99207.38
2023-01-13T01:17:19.780Z,99206.41
2023-01-13T01:19:24.016Z,99195.16
2023-01-13T01:21:28.143Z,99206.50
2023-01-13T01:23:31.334Z,99215.25
2023-01-13T01:25:34.486Z,99210.00
2023-01-13T01:27:37.736Z,99220.28
2023-01-13T01:29:41.182Z,99235.94
2023-01-13T01:31:46.160Z,99225.22
2023-01-13T01:33:49.629Z,99226.88
2023-01-13T01:35:52.981Z,99225.94
2023-01-13T01:37:56.187Z,99229.53
2023-01-13T01:39:59.398Z,99242.38
2023-01-13T01:42:20.106Z,99248.25
2023-01-13T01:44:43.851Z,99262.66
2023-01-13T01:46:48.674Z,99264.13
2023-01-13T01:48:51.850Z,99282.44
2023-01-13T01:50:55.771Z,99282.19
2023-01-13T01:53:01.730Z,99283.03
2023-01-13T01:55:06.528Z,99289.16
2023-01-13T01:57:12.224Z,99290.09
2023-01-13T01:59:15.755Z,99305.06
2023-01-13T02:01:19.537Z,99310.41
2023-01-13T02:03:24.509Z,99322.63
2023-01-13T02:05:28.004Z,99320.94
2023-01-13T02:07:32.851Z,99320.94
2023-01-13T02:09:36.646Z,99314.00
2023-01-13T02:12:08.510Z,99325.47
2023-01-13T02:14:11.848Z,99336.00
2023-01-13T02:16:18.455Z,99338.63
2023-01-13T02:18:44.708Z,99337.69
2023-01-13T02:21:02.774Z,99333.25
2023-01-13T02:23:50.209Z,99349.88
2023-01-13T02:26:03.075Z,99366.50
2023-01-13T02:28:28.165Z,99359.44
2023-01-13T02:30:56.756Z,99362.19
2023-01-13T02:33:05.100Z,99371.88
2023-01-13T02:35:09.634Z,99368.28
2023-01-13T02:37:16.298Z,99388.50
2023-01-13T02:39:24.511Z,99379.78
2023-01-13T02:41:47.928Z,99397.97
2023-01-13T02:44:10.744Z,99405.03
2023-01-13T02:46:19.038Z,99408.50
2023-01-13T02:48:24.368Z,99413.75
2023-01-13T02:50:30.608Z,99409.44
2023-01-13T02:52:37.403Z,99417.56
2023-01-13T02:54:42.875Z,99413.25
2023-01-13T02:56:49.109Z,99415.03
2023-01-13T02:58:52.703Z,99414.41
2023-01-13T03:00:56.174Z,99429.34
2023-01-13T03:03:00.948Z,99435.66
2023-01-13T03:05:04.210Z,99434.91
2023-01-13T03:07:13.812Z,99431.34
2023-01-13T03:09:21.211Z,99438.28
2023-01-13T03:11:27.224Z,99437.34
2023-01-13T03:13:46.472Z,99437.34
2023-01-13T03:15:55.573Z,99455.56
2023-01-13T03:18:03.396Z,99444.09
2023-01-13T03:20:08.312Z,99455.44
2023-01-13T03:22:17.152Z,99457.13
2023-01-13T03:24:23.228Z,99469.44
2023-01-13T03:26:29.884Z,99443.13
2023-01-13T03:28:35.003Z,99470.41
2023-01-13T03:30:42.206Z,99464.09
2023-01-13T03:32:47.298Z,99456.19
2023-01-13T03:34:53.016Z,99458.84
2023-01-13T03:36:57.187Z,99460.59
2023-01-13T03:39:02.862Z,99476.38
2023-01-13T03:41:08.701Z,99484.16
2023-01-13T03:43:30.787Z,99477.84
2023-01-13T03:45:35.049Z,99506.59
2023-01-13T03:47:41.283Z,99507.34
2023-01-13T03:49:47.150Z,99526.47
2023-01-13T03:51:56.603Z,99537.66
2023-01-13T03:54:01.990Z,99532.28
2023-01-13T03:56:09.117Z,99543.56
2023-01-13T03:58:15.061Z,99542.63
2023-01-13T04:00:18.398Z,99555.84
2023-01-13T04:02:24.716Z,99550.59
2023-01-13T04:04:31.579Z,99540.94
2023-01-13T04:06:39.421Z,99544.50
2023-01-13T04:08:49.832Z,99565.56
2023-01-13T04:10:54.695Z,99559.66
2023-01-13T04:13:02.868Z,99566.81
2023-01-13T04:15:06.418Z,99573.22
2023-01-13T04:17:09.363Z,99555.03
2023-01-13T04:19:12.352Z,99572.59
2023-01-13T04:21:15.316Z,99566.59
2023-01-13T04:23:18.852Z,99565.84
2023-01-13T04:25:23.149Z,99565.94
2023-01-13T04:27:26.115Z,99561.53
2023-01-13T04:29:29.122Z,99579.22
2023-01-13T04:31:32.254Z,99567.84
2023-01-13T04:33:35.401Z,99585.31
2023-01-13T04:35:38.768Z,99588.97
2023-01-13T04:37:41.988Z,99586.34
2023-01-13T04:39:46.768Z,99584.69
2023-01-13T04:42:00.014Z,99585.63
2023-01-13T04:44:02.950Z,99613.72
2023-01-13T04:46:06.107Z,99607.81
2023-01-13T04:48:09.151Z,99603.50
2023-01-13T04:50:13.029Z,99612.25
2023-01-13T04:52:16.048Z,99620.19
2023-01-13T04:54:18.981Z,99623.78
2023-01-13T04:56:21.922Z,99636.94
2023-01-13T04:58:26.518Z,99623.78
2023-01-13T05:00:29.428Z,99634.31
2023-01-13T05:02:32.481Z,99651.72
2023-01-13T05:04:35.459Z,99641.81
2023-01-13T05:06:38.457Z,99651.41
2023-01-13T05:08:41.424Z,99654.84
2023-01-13T05:10:44.451Z,99650.56
2023-01-13T05:13:05.132Z,99655.81
2023-01-13T05:15:28.619Z,99654.97
2023-01-13T05:17:32.827Z,99658.53
2023-01-13T05:19:39.197Z,99658.53
2023-01-13T05:22:00.041Z,99666.44
2023-01-13T05:24:20.148Z,99665.59
2023-01-13T05:26:24.146Z,99670.97
2023-01-13T05:28:27.133Z,99686.75
2023-01-13T05:30:32.609Z,99677.06
2023-01-13T05:32:35.660Z,99696.34
2023-01-13T05:34:38.593Z,99694.44
2023-01-13T05:36:41.611Z,99697.06
2023-01-13T05:38:44.526Z,99705.88
2023-01-13T05:41:05.103Z,99705.88
2023-01-13T05:43:21.256Z,99722.63
2023-01-13T05:45:24.469Z,99717.47
2023-01-13T05:47:28.987Z,99728.84
2023-01-13T05:49:31.950Z,99725.41
2023-01-13T05:51:34.886Z,99737.84
2023-01-13T05:53:37.981Z,99743.19
2023-01-13T05:55:41.415Z,99753.63
2023-01-13T05:57:44.780Z,99759.81
2023-01-13T05:59:47.705Z,99764.13
2023-01-13T06:01:50.723Z,99766.78
2023-01-13T06:03:55.011Z,99770.34
2023-01-13T06:06:01.899Z,99768.47
2023-01-13T06:08:06.151Z,99782.38
2023-01-13T06:10:10.201Z,99796.41
2023-01-13T06:12:13.605Z,99788.41
2023-01-13T06:14:16.605Z,99794.59
2023-01-13T06:16:19.578Z,99793.81
2023-01-13T06:18:22.825Z,99801.81
2023-01-13T06:20:27.157Z,99798.44
2023-01-13T06:22:32.998Z,99803.69
2023-01-13T06:24:35.980Z,99795.03
2023-01-13T06:26:40.444Z,99797.78
2023-01-13T06:28:43.382Z,99816.28
2023-01-13T06:30:48.316Z,99810.19
2023-01-13T06:32:53.402Z,99825.09
2023-01-13T06:34:57.678Z,99824.28
2023-01-13T06:37:02.711Z,99817.31
2023-01-13T06:39:05.942Z,99831.41
2023-01-13T06:41:09.368Z,99833.09
2023-01-13T06:43:17.748Z,99839.28
2023-01-13T06:45:21.076Z,99825.22
2023-01-13T06:47:24.082Z,99829.53
2023-01-13T06:49:27.039Z,99840.78
2023-01-13T06:51:30.189Z,99850.38
2023-01-13T06:53:34.606Z,99859.03
2023-01-13T06:55:37.566Z,99847.56
2023-01-13T06:57:48.548Z,99857.16
2023-01-13T06:59:51.548Z,99859.88
2023-01-13T07:01:54.679Z,99866.94
2023-01-13T07:03:58.297Z,99868.59
2023-01-13T07:06:02.358Z,99871.22
2023-01-13T07:08:05.531Z,99869.56
2023-01-13T07:10:13.127Z,99873.13
2023-01-13T07:12:16.042Z,99878.38
2023-01-13T07:14:36.337Z,99891.63
2023-01-13T07:16:39.388Z,99891.63
2023-01-13T07:18:42.504Z,99903.91
2023-01-13T07:20:45.482Z,99912.69
2023-01-13T07:22:54.692Z,99916.97
2023-01-13T07:24:58.150Z,99910.78
2023-01-13T07:27:02.606Z,99917.84
2023-01-13T07:29:06.428Z,99919.53
2023-01-13T07:31:15.313Z,99924.81
2023-01-13T07:33:18.721Z,99927.44
2023-01-13T07:35:23.578Z,99927.44
2023-01-13T07:37:26.530Z,99929.97
2023-01-13T07:39:29.516Z,99943.03
2023-01-13T07:41:49.954Z,99944.66
2023-01-13T07:43:54.376Z,99949.81
2023-01-13T07:45:58.617Z,99953.19
2023-01-13T07:48:01.776Z,99956.78
2023-01-13T07:50:05.149Z,99952.47
2023-01-13T07:52:09.025Z,99960.50
2023-01-13T07:54:12.067Z,99963.16
2023-01-13T07:56:15.140Z,99963.31
2023-01-13T07:58:18.167Z,99969.53
2023-01-13T08:00:23.465Z,99966.13
2023-01-13T08:02:26.697Z,99972.22
2023-01-13T08:04:29.934Z,99982.00
2023-01-13T08:06:32.851Z,99985.56
2023-01-13T08:08:35.880Z,99989.06
2023-01-13T08:10:38.911Z,99992.44
2023-01-13T08:12:59.027Z,99990.56
2023-01-13T08:15:02.106Z,100010.66
2023-01-13T08:17:06.482Z,100008.91
2023-01-13T08:19:09.468Z,100001.84
2023-01-13T08:21:13.434Z,100008.91
2023-01-13T08:23:16.468Z,100009.91
2023-01-13T08:25:19.499Z,100028.25
2023-01-13T08:27:22.438Z,100029.16
2023-01-13T08:29:25.416Z,100027.41
2023-01-13T08:31:28.422Z,100040.63
2023-01-13T08:33:33.140Z,100043.34
2023-01-13T08:35:37.324Z,100049.47
2023-01-13T08:37:40.603Z,100066.09
2023-01-13T08:39:43.928Z,100056.50
2023-01-13T08:41:59.639Z,100064.38
2023-01-13T08:44:03.419Z,100063.47
2023-01-13T08:46:06.739Z,100067.78
2023-01-13T08:48:10.015Z,100069.50
2023-01-13T08:50:15.078Z,100081.69
2023-01-13T08:52:18.418Z,100088.66
2023-01-13T08:54:21.668Z,100095.63
2023-01-13T08:56:25.084Z,100095.63
2023-01-13T08:58:28.247Z,100102.66
2023-01-13T09:00:31.491Z,100114.03
2023-01-13T09:02:34.752Z,100114.88
2023-01-13T09:04:38.102Z,100116.66
2023-01-13T09:06:42.853Z,100111.41
2023-01-13T09:08:46.228Z,100103.50
2023-01-13T09:10:49.535Z,100110.56
2023-01-13T09:13:10.149Z,100113.19
2023-01-13T09:15:14.176Z,100123.78
2023-01-13T09:17:17.356Z,100114.13
2023-01-13T09:19:20.802Z,100122.84
2023-01-13T09:21:24.328Z,100129.03
2023-01-13T09:23:28.874Z,100128.19
2023-01-13T09:25:32.172Z,100126.41
2023-01-13T09:27:35.379Z,100129.03
2023-01-13T09:29:38.573Z,100148.41
2023-01-13T09:31:44.013Z,100127.19
2023-01-13T09:34:04.851Z,100152.72
2023-01-13T09:36:08.619Z,100157.91
2023-01-13T09:38:11.954Z,100154.34
2023-01-13T09:40:18.707Z,100163.09
2023-01-13T09:42:42.788Z,100173.47
2023-01-13T09:44:49.558Z,100171.66
2023-01-13T09:46:54.218Z,100182.09
2023-01-13T09:48:58.983Z,100192.47
2023-01-13T09:51:06.398Z,100196.78
2023-01-13T09:53:15.048Z,100205.44
2023-01-13T09:55:20.939Z,100191.38
2023-01-13T09:57:24.308Z,100191.28
2023-01-13T09:59:28.848Z,100192.09
2023-01-13T10:01:36.810Z,100205.28
2023-01-13T10:03:40.128Z,100208.69
2023-01-13T10:05:47.086Z,100207.66
2023-01-13T10:07:52.447Z,100209.41
2023-01-13T10:09:56.831Z,100213.75
2023-01-13T10:12:19.743Z,100222.41
2023-01-13T10:14:28.136Z,100228.34
2023-01-13T10:16:41.232Z,100226.41
2023-01-13T10:18:51.831Z,100234.13
2023-01-13T10:20:58.646Z,100244.31
2023-01-13T10:23:10.420Z,100245.97
2023-01-13T10:25:26.695Z,100248.53
2023-01-13T10:27:34.684Z,100264.31
2023-01-13T10:29:38.207Z,100261.63
2023-01-13T10:31:41.362Z,100269.25
2023-01-13T10:33:44.646Z,100269.94
2023-01-13T10:35:51.764Z,100276.72
2023-01-13T10:37:58.399Z,100278.25
2023-01-13T10:40:03.129Z,100274.41
2023-01-13T10:42:07.497Z,100279.38
2023-01-13T10:44:16.911Z,100289.69
2023-01-13T10:46:20.955Z,100279.06
2023-01-13T10:48:24.334Z,100301.66
2023-01-13T10:50:29.941Z,100304.09
2023-01-13T10:52:36.256Z,100276.72
2023-01-13T10:54:51.957Z,100309.94
2023-01-13T10:57:16.042Z,100301.94
2023-01-13T10:59:24.284Z,100310.75
2023-01-13T11:01:30.708Z,100313.41
2023-01-13T11:03:41.868Z,100314.38
2023-01-13T11:05:54.590Z,100323.19
2023-01-13T11:07:58.187Z,100329.31
2023-01-13T11:10:16.096Z,100323.19
2023-01-13T11:12:32.632Z,100335.50
2023-01-13T11:14:41.710Z,100336.38
2023-01-13T11:16:53.812Z,100318.13
2023-01-13T11:19:12.353Z,100320.81
2023-01-13T11:21:23.611Z,100324.31
2023-01-13T11:23:33.503Z,100329.59
2023-01-13T11:25:43.187Z,100325.16
2023-01-13T11:27:52.585Z,100332.03
2023-01-13T11:30:10.091Z,100336.38
2023-01-13T11:32:19.455Z,100346.94
2023-01-13T11:34:31.755Z,100337.22
2023-01-13T11:36:40.195Z,100338.00
2023-01-13T11:38:48.708Z,100339.66
2023-01-13T11:40:52.588Z,100341.47
2023-01-13T11:43:04.068Z,100342.31
2023-01-13T11:45:19.999Z,100345.03
2023-01-13T11:47:27.480Z,100357.28
2023-01-13T11:49:34.159Z,100362.56
2023-01-13T11:51:44.927Z,100357.28
2023-01-13T11:54:02.136Z,100369.53
2023-01-13T11:56:24.734Z,100363.31
2023-01-13T11:58:51.112Z,100368.50
2023-01-13T12:01:22.939Z,100358.88
2023-01-13T12:03:32.439Z,100361.34
2023-01-13T12:05:38.942Z,100356.06
2023-01-13T12:07:51.553Z,100363.13
2023-01-13T12:10:05.244Z,100368.31
2023-01-13T12:12:23.438Z,100368.22
2023-01-13T12:14:39.228Z,100367.28
2023-01-13T12:16:49.170Z,100363.63
2023-01-13T12:19:11.792Z,100379.34
2023-01-13T12:21:21.164Z,100387.16
2023-01-13T12:23:31.614Z,100384.44
2023-01-13T12:25:40.267Z,100385.22
2023-01-13T12:27:49.314Z,100392.94
2023-01-13T12:29:59.784Z,100393.69
2023-01-13T12:32:08.337Z,100381.25
2023-01-13T12:34:26.914Z,100384.59
2023-01-13T12:36:39.930Z,100384.47
2023-01-13T12:38:50.049Z,100394.06
2023-01-13T12:41:01.554Z,100391.38
2023-01-13T12:43:34.249Z,100397.28
2023-01-13T12:45:38.073Z,100403.44
2023-01-13T12:47:45.722Z,100403.34
2023-01-13T12:49:49.259Z,100393.53
2023-01-13T12:52:18.558Z,100391.66
2023-01-13T12:54:49.966Z,100395.91
2023-01-13T12:56:54.923Z,100391.47
2023-01-13T12:59:48.731Z,100387.91
2023-01-13T13:01:53.686Z,100405.50
2023-01-13T13:04:11.448Z,100401.00
2023-01-13T13:06:20.728Z,100411.53
2023-01-13T13:08:32.478Z,100399.28
2023-01-13T13:10:40.307Z,100403.81
2023-01-13T13:13:16.652Z,100423.91
2023-01-13T13:15:22.695Z,100396.56
2023-01-13T13:17:46.563Z,100433.50
2023-01-13T13:19:51.635Z,100419.38
2023-01-13T13:22:46.817Z,100428.06
2023-01-13T13:25:22.578Z,100422.78
2023-01-13T13:27:30.185Z,100419.28
2023-01-13T13:29:51.382Z,100428.06
2023-01-13T13:32:28.740Z,100428.88
2023-01-13T13:34:37.215Z,100433.13
2023-01-13T13:36:55.587Z,100429.56
2023-01-13T13:39:29.115Z,100431.25
2023-01-13T13:41:55.384Z,100444.28
2023-01-13T13:44:34.186Z,100458.13
2023-01-13T13:46:50.667Z,100453.50
2023-01-13T13:48:56.220Z,100447.09
2023-01-13T13:51:02.753Z,100451.34
2023-01-13T13:53:09.505Z,100433.72
2023-01-13T13:55:19.309Z,100434.59
2023-01-13T13:57:27.899Z,100439.78
2023-01-13T13:59:33.777Z,100431.84
2023-01-13T14:01:40.339Z,100420.31
2023-01-13T14:03:44.258Z,100431.66
2023-01-13T14:05:55.993Z,100422.81
2023-01-13T14:08:04.372Z,100418.16
2023-01-13T14:10:18.123Z,100424.13
2023-01-13T14:12:23.986Z,100422.22
2023-01-13T14:14:28.409Z,100429.19
2023-01-13T14:16:33.623Z,100424.78
2023-01-13T14:18:47.332Z,100419.50
2023-01-13T14:20:55.343Z,100425.63
2023-01-13T14:23:01.907Z,100431.00
2023-01-13T14:25:33.018Z,100420.53
2023-01-13T14:27:44.950Z,100413.66
2023-01-13T14:29:48.945Z,100410.34
2023-01-13T14:31:56.095Z,100405.25
2023-01-13T14:34:02.552Z,100405.47
2023-01-13T14:36:16.071Z,100414.50
2023-01-13T14:38:19.856Z,100410.25
2023-01-13T14:40:47.040Z,100407.97
2023-01-13T14:42:58.684Z,100403.00
2023-01-13T14:45:03.712Z,100397.13
2023-01-13T14:47:23.852Z,100385.06
2023-01-13T14:49:32.138Z,100389.75
2023-01-13T14:51:35.591Z,100399.69
2023-01-13T14:53:43.464Z,100394.56
2023-01-13T14:55:48.485Z,100412.47
2023-01-13T14:57:51.910Z,100411.78
2023-01-13T15:00:06.676Z,100413.66
2023-01-13T15:02:52.160Z,100412.06
2023-01-13T15:04:58.817Z,100408.75
2023-01-13T15:07:05.775Z,100415.91
2023-01-13T15:09:13.998Z,100411.59
2023-01-13T15:11:25.977Z,100401.97
2023-01-13T15:13:37.561Z,100402.91
2023-01-13T15:15:41.482Z,100403.81
2023-01-13T15:17:47.217Z,100403.81
2023-01-13T15:19:50.847Z,100395.09
2023-01-13T15:21:54.313Z,100388.97
2023-01-13T15:23:57.922Z,100389.91
2023-01-13T15:26:02.499Z,100380.28
2023-01-13T15:28:08.665Z,100379.44
2023-01-13T15:30:16.241Z,100385.56
2023-01-13T15:32:21.604Z,100384.81
2023-01-13T15:34:25.154Z,100391.75
2023-01-13T15:36:30.740Z,100392.72
2023-01-13T15:38:34.662Z,100376.97
2023-01-13T15:40:38.636Z,100381.41
2023-01-13T15:42:59.610Z,100391.94
2023-01-13T15:45:22.775Z,100395.63
2023-01-13T15:47:28.961Z,100383.47
2023-01-13T15:49:36.794Z,100387.97
2023-01-13T15:51:41.321Z,100382.72
2023-01-13T15:53:45.015Z,100380.16
2023-01-13T15:55:53.368Z,100383.84
2023-01-13T15:57:57.439Z,100384.75
2023-01-13T16:00:08.299Z,100396.31
2023-01-13T16:02:16.191Z,100387.59
2023-01-13T16:04:19.803Z,100382.50
2023-01-13T16:06:29.375Z,100375.53
2023-01-13T16:08:34.436Z,100380.97
2023-01-13T16:10:38.248Z,100389.81
2023-01-13T16:12:41.960Z,100374.19
2023-01-13T16:14:45.649Z,100381.31
2023-01-13T16:16:52.012Z,100392.78
2023-01-13T16:18:56.089Z,100391.16
2023-01-13T16:20:59.665Z,100395.59
2023-01-13T16:23:03.108Z,100391.25
2023-01-13T16:25:08.070Z,100389.56
2023-01-13T16:27:16.083Z,100388.81
2023-01-13T16:29:19.735Z,100397.56
2023-01-13T16:31:27.246Z,100392.28
2023-01-13T16:33:32.123Z,100385.41
2023-01-13T16:35:35.831Z,100395.09
2023-01-13T16:38:00.026Z,100374.94
2023-01-13T16:40:03.826Z,100378.44
2023-01-13T16:42:07.393Z,100373.19
2023-01-13T16:44:11.020Z,100380.31
2023-01-13T16:46:23.307Z,100379.38
2023-01-13T16:48:27.075Z,100388.13
2023-01-13T16:50:36.978Z,100374.94
2023-01-13T16:52:40.627Z,100369.69
2023-01-13T16:54:44.253Z,100365.38
2023-01-13T16:56:47.853Z,100369.69
2023-01-13T16:58:52.038Z,100367.03
2023-01-13T17:00:55.620Z,100379.19
2023-01-13T17:03:02.191Z,100382.69
2023-01-13T17:05:06.430Z,100386.19
2023-01-13T17:07:17.162Z,100379.09
2023-01-13T17:09:23.492Z,100381.66
2023-01-13T17:11:27.340Z,100375.44
2023-01-13T17:13:31.185Z,100363.97
2023-01-13T17:15:35.850Z,100370.03
2023-01-13T17:17:40.177Z,100370.69
2023-01-13T17:19:44.064Z,100376.72
2023-01-13T17:21:47.711Z,100365.16
2023-01-13T17:23:52.922Z,100372.09
2023-01-13T17:25:56.544Z,100372.78
2023-01-13T17:28:00.427Z,100372.78
2023-01-13T17:30:04.750Z,100362.16
2023-01-13T17:32:08.330Z,100368.25
2023-01-13T17:34:13.338Z,100359.53
2023-01-13T17:36:16.712Z,100362.16
2023-01-13T17:38:20.914Z,100365.56
2023-01-13T17:40:26.275Z,100362.06
2023-01-13T17:42:29.899Z,100357.66
2023-01-13T17:44:33.721Z,100362.84
2023-01-13T17:46:37.414Z,100354.94
2023-01-13T17:48:41.307Z,100354.94
2023-01-13T17:50:48.611Z,100341.84
2023-01-13T17:52:52.121Z,100335.69
2023-01-13T17:54:55.730Z,100332.22
2023-01-13T17:57:00.673Z,100325.16
2023-01-13T17:59:04.149Z,100320.75
2023-01-13T18:01:12.383Z,100313.69
2023-01-13T18:03:16.460Z,100312.75
2023-01-13T18:05:20.112Z,100335.50
2023-01-13T18:07:23.633Z,100340.78
2023-01-13T18:09:27.263Z,100335.50
2023-01-13T18:11:30.888Z,100325.84
2023-01-13T18:13:36.727Z,100321.41
2023-01-13T18:15:40.132Z,100323.09
2023-01-13T18:17:43.651Z,100304.66
2023-01-13T18:20:05.979Z,100309.00
2023-01-13T18:22:31.101Z,100295.81
2023-01-13T18:24:52.042Z,100279.31
2023-01-13T18:27:12.728Z,100274.16
2023-01-13T18:29:18.669Z,100273.31
2023-01-13T18:31:22.333Z,100269.81
2023-01-13T18:33:26.226Z,100271.59
2023-01-13T18:35:30.466Z,100265.41
2023-01-13T18:37:36.153Z,100254.88
2023-01-13T18:39:39.849Z,100260.88
2023-01-13T18:42:00.827Z,100251.16
2023-01-13T18:44:04.588Z,100248.53
2023-01-13T18:46:09.648Z,100236.31
2023-01-13T18:48:12.882Z,100241.75
2023-01-13T18:50:17.578Z,100242.97
2023-01-13T18:52:22.030Z,100230.28
2023-01-13T18:54:25.999Z,100221.00
2023-01-13T18:56:31.392Z,100208.31
2023-01-13T18:58:35.624Z,100216.47
2023-01-13T19:00:40.360Z,100228.72
2023-01-13T19:02:47.649Z,100215.72
2023-01-13T19:04:54.136Z,100209.97
2023-01-13T19:07:01.142Z,100209.97
2023-01-13T19:09:08.924Z,100196.91
2023-01-13T19:11:12.610Z,100199.72
2023-01-13T19:13:17.191Z,100185.69
2023-01-13T19:15:21.179Z,100175.94
2023-01-13T19:17:26.511Z,100171.41
2023-01-13T19:19:31.600Z,100158.03
2023-01-13T19:21:35.463Z,100155.97
2023-01-13T19:23:39.001Z,100143.28
2023-01-13T19:25:42.970Z,100140.38
2023-01-13T19:27:46.751Z,100131.06
2023-01-13T19:29:53.743Z,100127.97
2023-01-13T19:31:57.206Z,100109.97
2023-01-13T19:34:01.207Z,100112.91
2023-01-13T19:36:07.983Z,100102.88
2023-01-13T19:38:11.673Z,100103.44
2023-01-13T19:40:16.372Z,100087.53
2023-01-13T19:42:38.012Z,100080.28
2023-01-13T19:44:59.125Z,100055.63
2023-01-13T19:47:04.142Z,100058.97
2023-01-13T19:49:08.548Z,100057.09
2023-01-13T19:51:14.850Z,100042.13
2023-01-13T19:53:19.503Z,100028.00
2023-01-13T19:55:23.146Z,100019.03
2023-01-13T19:57:27.413Z,99999.72
2023-01-13T19:59:32.928Z,99995.31
2023-01-13T20:01:40.899Z,99981.16
2023-01-13T20:03:46.176Z,99976.84
2023-01-13T20:05:50.266Z,99975.16
2023-01-13T20:07:55.958Z,99972.50
2023-01-13T20:10:01.859Z,99962.81
2023-01-13T20:12:08.783Z,99958.41
2023-01-13T20:14:13.792Z,99956.69
2023-01-13T20:16:17.430Z,99955.66
2023-01-13T20:18:21.317Z,99943.19
2023-01-13T20:20:26.628Z,99940.44
2023-01-13T20:22:30.311Z,99930.66
2023-01-13T20:24:35.708Z,99941.84
2023-01-13T20:26:40.127Z,99924.94
2023-01-13T20:28:44.210Z,99924.00
2023-01-13T20:30:49.541Z,99913.28
2023-01-13T20:32:53.594Z,99905.16
2023-01-13T20:34:57.288Z,99890.91
2023-01-13T20:37:01.604Z,99890.69
2023-01-13T20:39:08.439Z,99887.94
2023-01-13T20:41:27.323Z,99877.19
2023-01-13T20:43:30.797Z,99870.00
2023-01-13T20:45:34.657Z,99869.78
2023-01-13T20:47:38.627Z,99855.53
2023-01-13T20:49:42.788Z,99854.59
2023-01-13T20:51:46.414Z,99834.22
2023-01-13T20:53:50.223Z,99840.25
2023-01-13T20:55:54.091Z,99829.56
2023-01-13T20:57:59.324Z,99825.78
2023-01-13T21:00:04.683Z,99828.19
2023-01-13T21:02:12.218Z,99820.16
2023-01-13T21:04:16.157Z,99827.75
2023-01-13T21:06:20.646Z,99809.06
2023-01-13T21:08:24.471Z,99806.19
2023-01-13T21:10:28.214Z,99801.66
2023-01-13T21:12:49.332Z,99801.44
2023-01-13T21:15:12.027Z,99796.78
2023-01-13T21:17:39.918Z,99799.09
2023-01-13T21:19:42.790Z,99788.19
2023-01-13T21:21:46.915Z,99777.31
2023-01-13T21:23:53.238Z,99779.72
2023-01-13T21:25:56.751Z,99782.13
2023-01-13T21:28:05.647Z,99774.09
2023-01-13T21:30:15.184Z,99761.63
2023-01-13T21:32:18.934Z,99757.94
2023-01-13T21:34:22.545Z,99749.06
2023-01-13T21:36:27.257Z,99744.59
2023-01-13T21:38:30.867Z,99737.44
2023-01-13T21:40:35.336Z,99755.91
2023-01-13T21:42:58.918Z,99737.44
2023-01-13T21:45:20.435Z,99743.56
2023-01-13T21:47:42.886Z,99732.13
2023-01-13T21:49:46.963Z,99724.13
2023-01-13T21:51:50.738Z,99724.13
2023-01-13T21:53:55.021Z,99711.00
2023-01-13T21:55:58.750Z,99706.59
2023-01-13T21:58:11.862Z,99689.06
2023-01-13T22:00:16.679Z,99690.75
2023-01-13T22:02:31.975Z,99683.53
2023-01-13T22:04:37.587Z,99677.28
2023-01-13T22:06:41.342Z,99673.72
2023-01-13T22:08:45.101Z,99669.13
2023-01-13T22:10:58.148Z,99672.53
2023-01-13T22:13:23.943Z,99663.41
2023-01-13T22:15:30.826Z,99669.31
2023-01-13T22:17:35.052Z,99669.91
2023-01-13T22:19:42.491Z,99668.69
2023-01-13T22:21:46.629Z,99672.91
2023-01-13T22:23:50.819Z,99659.69
2023-01-13T22:26:02.573Z,99659.81
2023-01-13T22:28:08.817Z,99658.13
2023-01-13T22:30:17.814Z,99652.97
2023-01-13T22:32:23.037Z,99646.00
2023-01-13T22:34:27.155Z,99638.31
2023-01-13T22:36:32.162Z,99633.16
2023-01-13T22:38:35.717Z,99624.47
2023-01-13T22:40:39.493Z,99621.97
2023-01-13T22:42:44.317Z,99614.16
2023-01-13T22:44:47.990Z,99606.25
2023-01-13T22:46:51.307Z,99590.50
2023-01-13T22:48:56.035Z,99592.31
2023-01-13T22:51:06.325Z,99592.31
2023-01-13T22:53:11.512Z,99580.91
2023-01-13T22:55:15.862Z,99572.97
2023-01-13T22:57:19.746Z,99566.00
2023-01-13T22:59:24.044Z,99557.25
2023-01-13T23:01:29.629Z,99548.38
2023-01-13T23:03:33.498Z,99537.06
2023-01-13T23:05:37.712Z,99523.16
2023-01-13T23:07:41.533Z,99518.81
2023-01-13T23:09:46.647Z,99514.63
2023-01-13T23:11:51.609Z,99506.91
2023-01-13T23:14:00.625Z,99501.00
2023-01-13T23:16:06.146Z,99492.38
2023-01-13T23:18:11.006Z,99488.19
2023-01-13T23:20:16.209Z,99483.03
2023-01-13T23:22:21.353Z,99470.78
2023-01-13T23:24:28.515Z,99461.16
2023-01-13T23:26:37.816Z,99456.75
2023-01-13T23:28:45.977Z,99456.75
2023-01-13T23:30:50.387Z,99448.94
2023-01-13T23:32:54.697Z,99439.22
2023-01-13T23:34:59.379Z,99425.19
2023-01-13T23:37:04.261Z,99421.81
2023-01-13T23:39:09.035Z,99398.88
2023-01-13T23:41:17.205Z,99391.94
2023-01-13T23:43:23.374Z,99391.06
2023-01-13T23:45:30.535Z,99378.00
2023-01-13T23:47:34.789Z,99370.19
2023-01-13T23:49:39.283Z,99372.00
2023-01-13T23:51:43.465Z,99358.22
2023-01-13T23:53:49.283Z,99356.91
2023-01-13T23:55:58.046Z,99352.94
2023-01-13T23:58:02.340Z,99339.97
